createdAt,value
2019-03-20T00:00:25.795Z,3.40
2019-03-20T00:02:55.680Z,3.60
2019-03-20T00:06:02.238Z,3.50
2019-03-20T00:08:32.681Z,3.50
2019-03-20T00:11:02.492Z,3.40
2019-03-20T00:13:32.519Z,3.30
2019-03-20T00:16:04.706Z,3.40
2019-03-20T00:18:34.484Z,3.30
2019-03-20T00:21:04.330Z,3.40
2019-03-20T00:23:34.086Z,3.30
2019-03-20T00:26:03.874Z,3.30
2019-03-20T00:28:33.917Z,3.30
2019-03-20T00:31:07.589Z,3.30
2019-03-20T00:33:37.583Z,3.20
2019-03-20T00:36:07.388Z,3.10
2019-03-20T00:42:05.566Z,3.10
2019-03-20T00:44:35.385Z,3.10
2019-03-20T00:47:05.172Z,3.10
2019-03-20T00:49:35.036Z,3.00
2019-03-20T00:52:05.336Z,3.10
2019-03-20T00:54:35.086Z,3.00
2019-03-20T00:57:04.938Z,3.00
2019-03-20T00:59:34.865Z,3.00
2019-03-20T01:02:06.254Z,2.90
2019-03-20T01:04:41.001Z,2.90
2019-03-20T01:07:10.974Z,2.90
2019-03-20T01:09:40.737Z,2.90
2019-03-20T01:12:11.109Z,2.90
2019-03-20T01:14:40.876Z,2.80
2019-03-20T01:17:10.633Z,2.80
2019-03-20T01:19:46.054Z,2.80
2019-03-20T01:22:15.808Z,2.80
2019-03-20T01:24:45.584Z,2.80
2019-03-20T01:27:15.940Z,2.80
2019-03-20T01:30:31.016Z,2.80
2019-03-20T01:33:02.122Z,2.80
2019-03-20T01:35:32.409Z,2.80
2019-03-20T01:38:18.742Z,2.80
2019-03-20T01:40:48.501Z,2.90
2019-03-20T01:43:18.257Z,3.00
2019-03-20T01:45:48.184Z,3.00
2019-03-20T01:48:17.949Z,2.90
2019-03-20T01:50:47.769Z,2.80
2019-03-20T01:53:17.592Z,2.80
2019-03-20T01:55:47.373Z,2.90
2019-03-20T01:58:17.157Z,2.80
2019-03-20T02:00:48.551Z,2.70
2019-03-20T02:03:18.358Z,2.70
2019-03-20T02:05:48.090Z,2.60
2019-03-20T02:08:18.271Z,2.60
2019-03-20T02:10:55.584Z,2.60
2019-03-20T02:13:25.485Z,2.60
2019-03-20T02:15:55.313Z,2.60
2019-03-20T02:18:25.069Z,2.50
2019-03-20T02:20:55.229Z,2.50
2019-03-20T02:23:24.985Z,2.50
2019-03-20T02:26:12.874Z,2.60
2019-03-20T02:28:42.641Z,2.50
2019-03-20T02:31:12.516Z,2.50
2019-03-20T02:33:42.333Z,2.50
2019-03-20T02:36:16.567Z,2.60
2019-03-20T02:38:46.408Z,2.50
2019-03-20T02:41:16.173Z,2.50
2019-03-20T02:43:51.877Z,2.50
2019-03-20T02:46:21.589Z,2.60
2019-03-20T02:48:51.357Z,2.50
2019-03-20T02:51:21.524Z,2.50
2019-03-20T02:53:51.337Z,2.50
2019-03-20T02:56:21.133Z,2.60
2019-03-20T02:58:51.313Z,2.60
2019-03-20T03:01:21.048Z,2.30
2019-03-20T03:03:50.798Z,2.30
2019-03-20T03:06:29.306Z,2.30
2019-03-20T03:08:59.100Z,2.30
2019-03-20T03:11:28.891Z,2.20
2019-03-20T03:14:46.948Z,2.30
2019-03-20T03:17:16.690Z,2.20
2019-03-20T03:19:46.446Z,2.20
2019-03-20T03:22:16.395Z,2.20
2019-03-20T03:24:48.568Z,2.20
2019-03-20T03:27:18.332Z,2.30
2019-03-20T03:29:48.245Z,2.30
2019-03-20T03:32:18.092Z,2.30
2019-03-20T03:34:47.954Z,2.20
2019-03-20T03:37:18.865Z,2.20
2019-03-20T03:39:48.640Z,2.10
2019-03-20T03:42:18.397Z,2.20
2019-03-20T03:44:48.207Z,2.20
2019-03-20T03:47:27.716Z,2.20
2019-03-20T03:49:58.017Z,2.20
2019-03-20T03:52:27.800Z,2.20
2019-03-20T03:54:57.668Z,2.20
2019-03-20T03:57:36.499Z,2.10
2019-03-20T04:00:07.048Z,2.10
2019-03-20T04:02:36.753Z,2.20
2019-03-20T04:05:07.020Z,2.10
2019-03-20T04:07:36.771Z,2.10
2019-03-20T04:10:07.615Z,2.00
2019-03-20T04:12:47.741Z,2.10
2019-03-20T04:15:17.891Z,2.00
2019-03-20T04:17:47.680Z,2.00
2019-03-20T04:20:17.634Z,2.00
2019-03-20T04:22:47.537Z,2.00
2019-03-20T04:25:17.702Z,2.00
2019-03-20T04:28:30.707Z,2.00
2019-03-20T04:31:00.560Z,2.00
2019-03-20T04:33:30.324Z,2.00
2019-03-20T04:36:00.309Z,1.90
2019-03-20T04:38:31.515Z,1.90
2019-03-20T04:41:01.313Z,2.00
2019-03-20T04:43:31.297Z,2.00
2019-03-20T04:46:01.489Z,1.90
2019-03-20T04:48:31.308Z,1.90
2019-03-20T04:51:01.255Z,1.90
2019-03-20T04:53:34.725Z,1.90
2019-03-20T04:56:05.416Z,1.90
2019-03-20T04:58:35.224Z,2.00
2019-03-20T05:01:05.143Z,2.00
2019-03-20T05:03:35.063Z,1.90
2019-03-20T05:06:04.815Z,2.00
2019-03-20T05:08:35.996Z,2.00
2019-03-20T05:11:05.905Z,1.90
2019-03-20T05:13:35.707Z,1.90
2019-03-20T05:16:05.441Z,1.90
2019-03-20T05:18:35.314Z,1.90
2019-03-20T05:21:05.232Z,1.90
2019-03-20T05:23:39.163Z,1.90
2019-03-20T05:26:09.037Z,2.00
2019-03-20T05:28:38.792Z,1.90
2019-03-20T05:31:21.334Z,1.90
2019-03-20T05:33:51.048Z,1.80
2019-03-20T05:36:20.831Z,1.80
2019-03-20T05:38:50.791Z,1.80
2019-03-20T05:41:20.611Z,1.90
2019-03-20T05:43:50.393Z,1.90
2019-03-20T05:46:20.282Z,2.00
2019-03-20T05:48:55.103Z,1.90
2019-03-20T05:51:25.042Z,1.90
2019-03-20T05:53:54.782Z,2.00
2019-03-20T05:56:24.508Z,2.00
2019-03-20T05:58:54.409Z,2.00
2019-03-20T06:01:24.160Z,2.10
2019-03-20T06:03:53.912Z,2.10
2019-03-20T06:06:44.445Z,2.10
2019-03-20T06:09:14.240Z,2.10
2019-03-20T06:11:44.017Z,2.10
2019-03-20T06:14:13.904Z,2.10
2019-03-20T06:16:43.977Z,2.20
2019-03-20T06:19:14.867Z,2.20
2019-03-20T06:21:44.795Z,2.30
2019-03-20T06:24:14.505Z,2.30
2019-03-20T06:26:46.602Z,2.50
2019-03-20T06:29:16.540Z,2.50
2019-03-20T06:31:46.313Z,2.50
2019-03-20T06:34:16.080Z,2.60
2019-03-20T06:36:46.209Z,2.70
2019-03-20T06:39:15.974Z,2.90
2019-03-20T06:41:45.756Z,3.10
2019-03-20T06:44:15.843Z,3.20
2019-03-20T06:46:45.688Z,3.20
2019-03-20T06:49:15.480Z,3.20
2019-03-20T06:51:45.591Z,3.30
2019-03-20T06:54:15.416Z,3.30
2019-03-20T06:56:46.472Z,3.40
2019-03-20T06:59:57.086Z,3.40
2019-03-20T07:02:26.774Z,3.40
2019-03-20T07:05:30.412Z,3.60
2019-03-20T07:08:00.193Z,3.80
2019-03-20T07:11:00.634Z,4.00
2019-03-20T07:13:30.492Z,4.10
2019-03-20T07:16:00.294Z,4.20
2019-03-20T07:18:32.695Z,4.50
2019-03-20T07:21:02.587Z,4.60
2019-03-20T07:23:32.523Z,4.80
2019-03-20T07:26:02.490Z,5.00
2019-03-20T07:28:32.807Z,5.60
2019-03-20T07:31:02.735Z,5.90
2019-03-20T07:33:32.599Z,6.40
2019-03-20T07:36:02.409Z,7.20
2019-03-20T07:38:33.492Z,8.00
2019-03-20T07:41:03.425Z,8.40
2019-03-20T07:43:33.192Z,8.50
2019-03-20T07:46:02.962Z,8.60
2019-03-20T07:48:34.234Z,8.60
2019-03-20T07:51:04.110Z,8.50
2019-03-20T07:53:33.873Z,8.70
2019-03-20T07:56:03.774Z,8.70
2019-03-20T07:58:33.913Z,8.70
2019-03-20T08:01:03.703Z,8.60
2019-03-20T08:03:33.752Z,8.40
2019-03-20T08:06:03.622Z,8.30
2019-03-20T08:08:35.616Z,8.20
2019-03-20T08:11:06.006Z,8.20
2019-03-20T08:13:37.179Z,8.30
2019-03-20T08:16:07.351Z,8.20
2019-03-20T08:18:37.187Z,8.20
2019-03-20T08:21:10.457Z,8.10
2019-03-20T08:23:40.339Z,8.10
2019-03-20T08:33:36.908Z,8.00
2019-03-20T08:36:06.870Z,7.90
2019-03-20T08:38:42.503Z,7.90
2019-03-20T08:41:12.508Z,7.90
2019-03-20T08:43:42.312Z,7.90
2019-03-20T08:46:12.108Z,7.80
2019-03-20T08:48:42.289Z,7.90
2019-03-20T08:51:12.035Z,7.90
2019-03-20T08:53:42.218Z,7.90
2019-03-20T08:56:12.183Z,8.00
2019-03-20T08:58:42.466Z,8.00
2019-03-20T09:01:12.373Z,8.10
2019-03-20T09:03:42.366Z,8.10
2019-03-20T09:06:14.431Z,8.20
2019-03-20T09:08:46.051Z,8.20
2019-03-20T09:11:16.016Z,8.20
2019-03-20T09:13:45.829Z,8.30
2019-03-20T09:16:15.698Z,8.40
2019-03-20T09:18:51.685Z,8.40
2019-03-20T09:21:21.899Z,8.50
2019-03-20T09:23:51.720Z,8.60
2019-03-20T09:26:21.561Z,8.70
2019-03-20T09:28:57.444Z,8.80
2019-03-20T09:31:27.259Z,9.00
2019-03-20T09:33:57.197Z,9.00
2019-03-20T09:36:27.213Z,9.00
2019-03-20T09:39:06.348Z,9.20
2019-03-20T09:41:36.237Z,9.20
2019-03-20T09:44:06.047Z,9.40
2019-03-20T09:46:48.249Z,9.40
2019-03-20T09:49:18.020Z,9.50
2019-03-20T09:51:47.773Z,9.50
2019-03-20T09:54:18.050Z,9.60
2019-03-20T09:56:47.827Z,9.90
2019-03-20T09:59:17.572Z,9.80
2019-03-20T10:01:48.814Z,9.90
2019-03-20T10:04:18.596Z,9.90
2019-03-20T10:06:48.414Z,10.10
2019-03-20T10:09:18.760Z,10.20
2019-03-20T10:11:48.533Z,10.10
2019-03-20T10:14:18.308Z,10.20
2019-03-20T10:16:48.749Z,10.30
2019-03-20T10:19:18.520Z,10.30
2019-03-20T10:21:48.421Z,10.40
2019-03-20T10:24:18.308Z,10.40
2019-03-20T10:26:48.105Z,10.50
2019-03-20T10:29:17.900Z,10.50
2019-03-20T10:31:48.236Z,10.50
2019-03-20T10:34:19.865Z,10.40
2019-03-20T10:36:55.597Z,10.50
2019-03-20T10:39:25.451Z,10.40
2019-03-20T10:41:55.833Z,10.60
2019-03-20T10:44:25.598Z,10.70
2019-03-20T10:46:55.407Z,10.70
2019-03-20T10:49:25.388Z,10.60
2019-03-20T10:51:55.146Z,10.70
2019-03-20T10:54:24.925Z,10.70
2019-03-20T10:56:54.932Z,10.70
2019-03-20T10:59:30.712Z,10.80
2019-03-20T11:02:00.978Z,10.80
2019-03-20T11:04:31.025Z,10.80
2019-03-20T11:07:00.819Z,10.70
2019-03-20T11:09:30.675Z,10.80
2019-03-20T11:12:00.495Z,11.00
2019-03-20T11:14:31.636Z,11.00
2019-03-20T11:17:01.559Z,10.90
2019-03-20T11:19:31.311Z,11.00
2019-03-20T11:22:01.055Z,10.90
2019-03-20T11:24:30.968Z,10.80
2019-03-20T11:27:01.881Z,10.90
2019-03-20T11:29:31.965Z,11.00
2019-03-20T11:32:01.827Z,11.00
2019-03-20T11:34:31.630Z,11.00
2019-03-20T11:37:01.424Z,10.90
2019-03-20T11:39:31.383Z,10.90
2019-03-20T11:42:01.167Z,11.00
2019-03-20T11:44:31.030Z,11.10
2019-03-20T11:47:01.615Z,11.20
2019-03-20T11:49:31.390Z,11.30
2019-03-20T11:52:01.433Z,11.40
2019-03-20T11:54:31.366Z,11.40
2019-03-20T11:57:02.038Z,11.20
2019-03-20T11:59:31.805Z,11.20
2019-03-20T12:02:01.671Z,11.20
2019-03-20T12:04:31.434Z,11.20
2019-03-20T12:07:01.563Z,11.10
2019-03-20T12:09:40.674Z,11.20
2019-03-20T12:12:02.866Z,11.20
2019-03-20T12:14:32.933Z,11.20
2019-03-20T12:17:02.837Z,11.20
2019-03-20T12:19:44.365Z,11.20
2019-03-20T12:22:04.104Z,11.30
2019-03-20T12:24:34.042Z,11.30
2019-03-20T12:27:14.531Z,11.30
2019-03-20T12:29:36.161Z,11.30
2019-03-20T12:32:06.165Z,11.30
2019-03-20T12:34:35.905Z,11.30
2019-03-20T12:37:05.657Z,11.50
2019-03-20T12:39:35.457Z,11.50
2019-03-20T12:42:05.296Z,11.50
2019-03-20T12:44:35.052Z,11.50
2019-03-20T12:47:05.341Z,11.50
2019-03-20T12:49:35.116Z,11.50
2019-03-20T12:52:06.303Z,11.50
2019-03-20T12:54:41.707Z,11.50
2019-03-20T12:57:11.529Z,11.50
2019-03-20T12:59:42.576Z,11.50
2019-03-20T13:02:12.477Z,11.40
2019-03-20T13:04:42.229Z,11.40
2019-03-20T13:07:12.086Z,11.50
2019-03-20T13:09:41.916Z,11.60
2019-03-20T13:12:11.654Z,11.80
2019-03-20T13:14:41.411Z,11.80
2019-03-20T13:17:17.836Z,11.70
2019-03-20T13:19:47.607Z,11.80
2019-03-20T13:22:17.357Z,11.90
2019-03-20T13:24:47.267Z,12.00
2019-03-20T13:27:17.024Z,11.70
2019-03-20T13:29:47.170Z,11.80
2019-03-20T13:32:18.393Z,11.80
2019-03-20T13:34:48.208Z,11.70
2019-03-20T13:37:17.950Z,11.70
2019-03-20T13:39:49.103Z,11.60
2019-03-20T13:42:18.845Z,11.60
2019-03-20T13:44:48.585Z,11.50
2019-03-20T13:47:18.503Z,11.50
2019-03-20T13:49:49.640Z,11.50
2019-03-20T13:52:19.380Z,11.50
2019-03-20T13:54:49.244Z,11.50
2019-03-20T13:57:18.991Z,11.50
2019-03-20T13:59:48.773Z,11.40
2019-03-20T14:02:18.581Z,11.40
2019-03-20T14:04:52.557Z,11.40
2019-03-20T14:07:22.366Z,11.40
2019-03-20T14:09:52.173Z,11.40
2019-03-20T14:12:21.935Z,11.40
2019-03-20T14:14:53.336Z,11.30
2019-03-20T14:17:23.079Z,11.30
2019-03-20T14:19:52.858Z,11.30
2019-03-20T14:22:23.765Z,11.20
2019-03-20T14:24:53.468Z,11.20
2019-03-20T14:27:23.262Z,11.30
2019-03-20T14:29:54.652Z,11.30
2019-03-20T14:32:24.488Z,11.30
2019-03-20T14:34:54.277Z,11.30
2019-03-20T14:37:24.175Z,11.30
2019-03-20T14:39:53.921Z,11.30
2019-03-20T14:42:23.752Z,11.30
2019-03-20T14:44:55.136Z,11.40
2019-03-20T14:47:24.882Z,11.40
2019-03-20T14:49:54.639Z,11.40
2019-03-20T14:52:24.473Z,11.40
2019-03-20T14:54:54.270Z,11.40
2019-03-20T14:57:24.028Z,11.40
2019-03-20T14:59:55.202Z,11.50
2019-03-20T15:02:24.958Z,11.50
2019-03-20T15:04:54.712Z,11.50
2019-03-20T15:07:24.680Z,11.50
2019-03-20T15:09:54.532Z,11.40
2019-03-20T15:12:24.241Z,11.50
2019-03-20T15:14:54.388Z,11.60
2019-03-20T15:17:24.194Z,11.50
2019-03-20T15:19:53.948Z,11.50
2019-03-20T15:22:23.798Z,11.50
2019-03-20T15:24:53.527Z,11.50
2019-03-20T15:27:23.274Z,11.70
2019-03-20T15:29:53.100Z,11.70
2019-03-20T15:32:24.176Z,11.80
2019-03-20T15:34:54.041Z,11.80
2019-03-20T15:37:24.245Z,11.70
2019-03-20T15:39:53.973Z,11.60
2019-03-20T15:42:23.720Z,11.50
2019-03-20T15:44:54.025Z,11.50
2019-03-20T15:47:23.808Z,11.50
2019-03-20T15:49:53.565Z,11.50
2019-03-20T15:52:23.403Z,11.40
2019-03-20T15:54:53.165Z,11.40
2019-03-20T15:57:22.920Z,11.40
2019-03-20T15:59:52.908Z,11.40
2019-03-20T16:02:22.906Z,11.40
2019-03-20T16:04:52.649Z,11.40
2019-03-20T16:07:22.457Z,11.40
2019-03-20T16:09:52.202Z,11.40
2019-03-20T16:12:21.946Z,11.30
2019-03-20T16:14:51.804Z,11.30
2019-03-20T16:17:21.840Z,11.20
2019-03-20T16:19:51.594Z,11.10
2019-03-20T16:22:21.441Z,11.00
2019-03-20T16:24:51.192Z,11.00
2019-03-20T16:27:21.001Z,11.10
2019-03-20T16:29:50.989Z,11.10
2019-03-20T16:32:20.757Z,11.00
2019-03-20T16:34:52.896Z,11.00
2019-03-20T16:37:22.905Z,11.00
2019-03-20T16:39:52.642Z,11.00
2019-03-20T16:42:22.368Z,10.90
2019-03-20T16:44:54.053Z,10.90
2019-03-20T16:47:23.796Z,10.90
2019-03-20T16:49:53.676Z,10.80
2019-03-20T16:52:23.923Z,10.80
2019-03-20T16:54:53.794Z,10.80
2019-03-20T16:57:23.629Z,10.80
2019-03-20T16:59:55.094Z,10.70
2019-03-20T17:02:25.794Z,10.80
2019-03-20T17:04:55.640Z,10.70
2019-03-20T17:07:25.546Z,10.70
2019-03-20T17:09:55.340Z,10.70
2019-03-20T17:12:26.404Z,10.70
2019-03-20T17:14:56.303Z,10.70
2019-03-20T17:17:26.069Z,10.70
2019-03-20T17:19:55.863Z,10.70
2019-03-20T17:22:29.400Z,10.70
2019-03-20T17:24:59.135Z,10.60
2019-03-20T17:27:28.920Z,10.70
2019-03-20T17:29:59.197Z,10.60
2019-03-20T17:32:28.964Z,10.60
2019-03-20T17:34:58.780Z,10.60
2019-03-20T17:37:29.054Z,10.60
2019-03-20T17:39:58.974Z,10.60
2019-03-20T17:42:28.760Z,10.50
2019-03-20T17:44:58.621Z,10.50
2019-03-20T17:47:28.438Z,10.50
2019-03-20T17:49:59.571Z,10.50
2019-03-20T17:52:29.665Z,10.50
2019-03-20T17:54:59.422Z,10.40
2019-03-20T17:57:29.701Z,10.40
2019-03-20T17:59:59.686Z,10.40
2019-03-20T18:02:29.692Z,10.40
2019-03-20T18:04:59.790Z,10.40
2019-03-20T18:07:39.883Z,10.30
2019-03-20T18:10:10.021Z,10.30
2019-03-20T18:12:40.189Z,10.30
2019-03-20T18:15:12.785Z,10.40
2019-03-20T18:17:42.867Z,10.40
2019-03-20T18:20:13.810Z,10.30
2019-03-20T18:23:02.945Z,10.30
2019-03-20T18:25:32.781Z,10.30
2019-03-20T18:28:02.805Z,10.40
2019-03-20T18:30:32.836Z,10.40
2019-03-20T18:33:02.613Z,10.40
2019-03-20T18:35:32.391Z,10.30
2019-03-20T18:38:03.525Z,10.30
2019-03-20T18:40:33.319Z,10.40
2019-03-20T18:43:03.339Z,10.30
2019-03-20T18:45:33.356Z,10.40
2019-03-20T18:48:03.208Z,10.30
2019-03-20T18:50:33.448Z,10.30
2019-03-20T18:53:03.662Z,10.40
2019-03-20T18:55:33.401Z,10.40
2019-03-20T18:58:03.169Z,10.30
2019-03-20T19:00:33.080Z,10.40
2019-03-20T19:03:03.033Z,10.30
2019-03-20T19:06:03.058Z,10.30
2019-03-20T19:08:32.947Z,10.40
2019-03-20T19:11:02.793Z,10.30
2019-03-20T19:13:33.145Z,10.40
2019-03-20T19:16:02.889Z,10.30
2019-03-20T19:18:32.753Z,10.30
2019-03-20T19:21:02.645Z,10.40
2019-03-20T19:23:32.414Z,10.30
2019-03-20T19:26:02.174Z,10.30
2019-03-20T19:28:54.394Z,10.30
2019-03-20T19:31:24.168Z,10.30
2019-03-20T19:33:53.949Z,10.30
2019-03-20T19:36:29.903Z,10.30
2019-03-20T19:38:59.673Z,10.30
2019-03-20T19:41:29.456Z,10.30
2019-03-20T19:43:59.451Z,10.30
2019-03-20T19:46:29.197Z,10.30
2019-03-20T19:48:58.968Z,10.30
2019-03-20T19:51:28.801Z,10.30
2019-03-20T19:54:00.919Z,10.30
2019-03-20T19:56:30.681Z,10.30
2019-03-20T19:59:00.640Z,10.30
2019-03-20T20:01:30.404Z,10.40
2019-03-20T20:04:00.228Z,10.30
2019-03-20T20:06:30.638Z,10.30
2019-03-20T20:09:01.786Z,10.40
2019-03-20T20:11:31.541Z,10.30
2019-03-20T20:14:02.003Z,10.30
2019-03-20T20:16:31.869Z,10.30
2019-03-20T20:19:01.660Z,10.30
2019-03-20T20:21:31.503Z,10.30
2019-03-20T20:24:19.932Z,10.30
2019-03-20T20:26:49.822Z,10.40
2019-03-20T20:29:19.636Z,10.40
2019-03-20T20:31:50.890Z,10.40
2019-03-20T20:34:20.736Z,10.40
2019-03-20T20:39:14.095Z,10.40
2019-03-20T20:41:44.457Z,10.40
2019-03-20T20:44:14.590Z,10.30
2019-03-20T20:46:45.145Z,10.40
2019-03-20T20:49:15.861Z,10.40
2019-03-20T20:51:45.960Z,10.40
2019-03-20T20:54:16.378Z,10.40
2019-03-20T20:56:48.163Z,10.40
2019-03-20T20:59:18.386Z,10.30
2019-03-20T21:01:48.874Z,10.40
2019-03-20T21:04:19.341Z,10.30
2019-03-20T21:06:49.372Z,10.30
2019-03-20T21:09:19.820Z,10.30
2019-03-20T21:11:50.328Z,10.30
2019-03-20T21:14:20.537Z,10.30
2019-03-20T21:16:51.197Z,10.40
2019-03-20T21:19:40.574Z,10.30
2019-03-20T21:22:49.923Z,10.30
2019-03-20T21:25:24.203Z,10.30
2019-03-20T21:28:39.322Z,10.30
2019-03-20T21:31:40.361Z,10.30
2019-03-20T21:34:51.863Z,10.30
2019-03-20T21:37:55.460Z,10.30
2019-03-20T21:40:26.366Z,10.30
2019-03-20T21:43:52.142Z,10.30
2019-03-20T21:47:08.692Z,10.30
2019-03-20T21:49:40.035Z,10.20
2019-03-20T21:52:10.679Z,10.20
2019-03-20T21:55:31.561Z,10.20
2019-03-20T21:58:16.101Z,10.20
2019-03-20T22:01:35.407Z,10.20
2019-03-20T22:04:06.041Z,10.20
2019-03-20T22:07:17.925Z,10.30
2019-03-20T22:10:33.525Z,10.20
2019-03-20T22:13:32.879Z,10.30
2019-03-20T22:16:42.833Z,10.20
2019-03-20T22:19:54.505Z,10.20
2019-03-20T22:22:58.248Z,10.20
2019-03-20T22:26:24.892Z,10.20
2019-03-20T22:29:29.002Z,10.20
2019-03-20T22:32:42.057Z,10.20
2019-03-20T22:35:38.746Z,10.20
2019-03-20T22:38:14.649Z,10.20
2019-03-20T22:41:27.248Z,10.20
2019-03-20T22:44:09.654Z,10.20
2019-03-20T22:47:17.641Z,10.20
2019-03-20T22:50:19.076Z,10.20
2019-03-20T22:53:28.254Z,10.20
2019-03-20T22:56:33.661Z,10.20
2019-03-20T22:59:04.292Z,10.30
2019-03-20T23:02:09.138Z,10.20
2019-03-20T23:04:42.749Z,10.20
2019-03-20T23:07:13.790Z,10.20
2019-03-20T23:09:44.769Z,10.20
2019-03-20T23:12:17.883Z,10.20
2019-03-20T23:14:49.206Z,10.20
2019-03-20T23:17:20.581Z,10.20
2019-03-20T23:19:52.232Z,10.20
2019-03-20T23:22:23.461Z,10.10
2019-03-20T23:24:53.940Z,10.10
2019-03-20T23:27:28.617Z,10.10
2019-03-20T23:29:59.405Z,10.10
2019-03-20T23:32:30.143Z,10.10
2019-03-20T23:35:02.214Z,10.20
2019-03-20T23:37:32.923Z,10.20
2019-03-20T23:40:03.588Z,10.20
2019-03-20T23:42:34.633Z,10.20
2019-03-20T23:45:07.434Z,10.20
2019-03-20T23:47:48.061Z,10.20
2019-03-20T23:50:18.797Z,10.20
2019-03-20T23:52:49.771Z,10.20
2019-03-20T23:55:21.127Z,10.20
2019-03-20T23:57:51.825Z,10.20
